Latest Weather Observations for Cowra

IDN60801

Issued at 9:35 pm EST Friday 22 August 2014 (issued every 30 minutes, with the page automatically refreshed every 10 minutes)

About weather observations | Map of weather stations | Latest weather observations for NSW | Other Formats
Station Details ID: 065111 Name: COWRA AIRPORT AWS Lat: -33.84 Lon: 148.65 Height: 296.5 m
Data from the previous 72 hours. | See also: Recent months at Cowra
Date/Time
EST
Temp
°C
App
Temp
°C
Dew
Point
Rel
Hum
%
Delta-T
°C
Wind Press
QNH
hPa
Press
MSL
hPa
Rain
since 9 am
mm
Dir
 
Spd
km/h
Gust
km/h
Spd
kts
Gust
kts
22/09:30pm 6.8 5.5 4.1 83 1.2 SE 0 0 0 0 1029.5 - 0.0
22/09:00pm 11.1 9.0 6.6 74 2.1 SE 7 11 4 6 1029.5 1030.2 0.0
22/08:30pm 10.8 8.7 6.6 75 2.0 ESE 7 7 4 4 1029.3 - 0.0
22/08:00pm 10.3 8.3 6.3 76 1.9 ESE 6 9 3 5 1029.0 - 0.0
22/07:30pm 9.7 6.9 5.3 74 2.0 S 9 11 5 6 1028.8 - 0.0
22/07:00pm 12.6 10.4 6.2 65 3.1 E 7 11 4 6 1028.5 - 0.0
22/06:30pm 13.7 11.3 6.8 63 3.4 E 9 11 5 6 1028.0 - 0.0
22/06:00pm 15.0 12.2 7.1 59 3.9 ESE 11 13 6 7 1027.7 1028.3 0.0
22/05:30pm 15.8 13.5 7.3 57 4.3 SE 9 13 5 7 1027.7 - 0.0
22/05:00pm 16.7 13.2 7.1 53 4.8 ESE 15 20 8 11 1027.4 - 0.0
22/04:30pm 17.1 13.2 7.2 52 5.0 ESE 17 20 9 11 1027.1 - 0.0
22/04:00pm 17.5 14.2 8.1 54 4.9 ESE 15 20 8 11 1026.9 - 0.0
22/03:30pm 17.5 13.3 7.5 52 5.1 SSE 19 24 10 13 1027.0 - 0.0
22/03:00pm 17.7 13.9 7.7 52 5.1 SE 17 24 9 13 1027.3 1027.9 0.0
22/02:30pm 17.7 14.1 8.3 54 4.9 SE 17 26 9 14 1027.6 - 0.0
22/02:00pm 17.4 14.5 8.0 54 4.9 SE 13 20 7 11 1027.8 - 0.0
22/01:30pm 16.1 13.1 7.8 58 4.2 SE 13 17 7 9 1028.2 - 0.0
22/01:00pm 16.0 12.6 7.5 57 4.3 SE 15 20 8 11 1028.6 - 0.0
22/12:30pm 16.2 12.9 7.9 58 4.2 SE 15 20 8 11 1028.9 - 0.0
22/12:00pm 15.7 11.8 7.0 56 4.3 SE 17 26 9 14 1029.5 1030.2 0.0
22/11:30am 15.3 11.8 7.3 59 4.0 SE 15 22 8 12 1030.0 - 0.0
22/11:00am 15.4 12.0 7.7 60 3.9 ESE 15 19 8 10 1030.5 - 0.0
22/10:30am 15.0 11.8 8.3 64 3.4 ESE 15 20 8 11 1030.8 - 0.0
22/10:00am 13.6 10.1 7.2 65 3.2 SE 15 22 8 12 1031.0 - 0.0
22/09:30am 12.8 9.4 7.7 71 2.5 SSE 15 20 8 11 1031.2 - 0.0
22/09:00am 11.4 8.7 7.5 77 1.9 S 11 17 6 9 1031.2 1031.8 0.0
22/08:30am 9.8 7.2 6.3 79 1.7 SSE 9 11 5 6 1031.2 - 0.0
22/08:00am 8.8 6.6 6.2 84 1.2 SE 7 9 4 5 1030.9 - 0.0
22/07:30am 6.3 3.4 4.9 91 0.6 SE 9 11 5 6 1030.5 - 0.0
22/07:00am 6.1 3.5 4.4 89 0.7 SE 7 9 4 5 1030.2 - 0.0
22/06:30am 6.5 3.6 4.8 89 0.8 SE 9 11 5 6 1029.7 - 0.0
22/06:00am 6.3 3.4 4.8 90 0.7 SSE 9 11 5 6 1029.5 1030.2 0.0
22/05:30am 6.3 3.0 4.5 88 0.8 SSE 11 13 6 7 1029.1 - 0.0
22/05:00am 7.1 3.7 6.0 93 0.5 SSE 13 17 7 9 1029.0 - 0.0
22/04:30am 5.4 3.0 5.3 99 0.0 S 7 9 4 5 1028.9 - 0.0
22/04:00am 2.6 1.0 2.2 97 0.2 CALM 0 0 0 0 1028.9 - 0.0
22/03:30am 3.1 0.4 2.7 97 0.2 W 6 9 3 5 1028.8 - 0.0
22/03:00am 4.5 0.9 3.2 91 0.5 S 11 13 6 7 1028.7 1029.3 0.0
22/02:30am 4.2 1.4 3.3 94 0.4 SSW 7 7 4 4 1028.8 - 0.0
22/02:00am 5.4 3.5 5.0 97 0.2 S 4 11 2 6 1029.1 - 0.0
22/01:30am 5.2 3.2 4.2 93 0.4 S 4 7 2 4 1029.2 - 0.0
22/01:00am 5.1 2.2 4.4 95 0.3 S 9 11 5 6 1029.3 - 0.0
22/12:30am 6.4 4.1 5.5 94 0.4 S 7 9 4 5 1029.2 - 0.0
22/12:00am 4.8 2.3 3.6 92 0.5 S 6 9 3 5 1029.1 1029.8 0.0
 
Date/Time
EST
Temp
°C
App
Temp
°C
Dew
Point
Rel
Hum
%
Delta-T
°C
Wind Press
QNH
hPa
Press
MSL
hPa
Rain
since 9 am
mm
Dir
 
Spd
km/h
Gust
km/h
Spd
kts
Gust
kts
21/11:30pm 4.9 1.7 2.8 86 0.9 S 9 11 5 6 1029.2 - 0.0
21/11:00pm 7.8 5.2 5.9 88 0.9 SSE 9 11 5 6 1029.2 - 0.0
21/10:30pm 5.7 2.3 3.9 88 0.8 SSW 11 13 6 7 1029.1 - 0.0
21/10:00pm 7.1 4.8 3.0 75 1.8 SSE 4 7 2 4 1029.0 - 0.0
21/09:30pm 10.0 7.4 6.3 78 1.7 SE 9 13 5 7 1028.8 - 0.0
21/09:00pm 10.7 7.8 6.5 75 2.0 SE 11 17 6 9 1028.5 1029.1 0.0
21/08:30pm 11.1 8.2 6.6 74 2.2 ESE 11 15 6 8 1028.4 - 0.0
21/08:00pm 11.2 8.3 6.3 72 2.3 ESE 11 19 6 10 1028.1 - 0.0
21/07:30pm 11.5 8.5 6.0 69 2.6 SE 11 15 6 8 1027.9 - 0.0
21/07:00pm 12.3 8.9 6.1 66 3.0 ESE 13 19 7 10 1027.7 - 0.0
21/06:30pm 12.8 10.2 5.9 63 3.3 SE 9 13 5 7 1027.4 - 0.0
21/06:00pm 13.5 10.9 5.9 60 3.6 ESE 9 15 5 8 1027.1 1027.7 0.0
21/05:30pm 14.5 11.5 6.1 57 4.1 ESE 11 15 6 8 1026.7 - 0.0
21/05:00pm 15.5 12.2 6.5 55 4.5 SE 13 17 7 9 1026.3 - 0.0
21/04:30pm 16.0 12.2 5.9 51 5.0 SE 15 22 8 12 1026.0 - 0.0
21/04:00pm 16.2 12.1 6.1 51 5.0 SE 17 24 9 13 1025.8 - 0.0
21/03:30pm 16.5 12.4 6.3 51 5.1 SE 17 24 9 13 1025.7 - 0.0
21/03:00pm 16.6 12.6 6.7 52 4.9 ESE 17 24 9 13 1025.8 1026.4 0.0
21/02:30pm 16.2 12.0 5.8 50 5.1 ESE 17 22 9 12 1026.0 - 0.0
21/02:00pm 16.2 12.1 6.1 51 5.0 SE 17 28 9 15 1026.2 - 0.0
21/01:30pm 16.1 12.1 6.8 54 4.6 SE 17 26 9 14 1026.5 - 0.0
21/01:00pm 15.9 12.0 7.1 56 4.4 ESE 17 26 9 14 1027.0 - 0.0
21/12:30pm 15.2 11.2 6.7 57 4.2 SE 17 24 9 13 1027.4 - 0.0
21/12:00pm 14.8 10.9 7.1 60 3.8 ESE 17 24 9 13 1028.0 1028.6 0.0
21/11:30am 14.2 10.0 7.3 63 3.4 SE 19 24 10 13 1028.4 - 0.0
21/11:00am 13.4 9.8 6.7 64 3.3 SE 15 24 8 13 1028.9 - 0.0
21/10:30am 12.2 8.5 6.5 68 2.8 SE 15 24 8 13 1029.2 - 0.0
21/10:00am 11.1 7.3 6.0 71 2.4 SE 15 20 8 11 1029.4 - 0.0
21/09:30am 9.6 7.4 6.1 79 1.6 SSE 7 11 4 6 1029.5 - 0.0
21/09:00am 8.0 5.8 5.1 82 1.3 ESE 6 9 3 5 1029.5 1030.3 0.2
21/08:30am 6.1 3.5 4.3 88 0.8 SSE 7 11 4 6 1029.5 - 0.2
21/08:00am 5.0 2.3 3.7 91 0.6 SE 7 9 4 5 1029.4 - 0.2
21/07:30am 3.4 0.2 3.3 99 0.0 SSE 9 11 5 6 1029.0 - 0.2
21/07:00am 2.9 -0.3 2.9 100 0.0 SE 9 11 5 6 1028.9 - 0.2
21/06:30am 0.8 -2.8 0.7 99 0.0 SE 9 11 5 6 1028.3 - 0.2
21/06:00am 1.4 -2.1 1.3 99 0.0 SE 9 13 5 7 1028.0 1028.6 0.2
21/05:30am 2.6 -0.3 2.5 99 0.0 SE 7 11 4 6 1027.7 - 0.2
21/05:00am 3.2 1.7 3.1 99 0.0 CALM 0 0 0 0 1027.7 - 0.2
21/04:30am 3.2 1.7 3.2 100 0.0 CALM 0 0 0 0 1027.6 - 0.2
21/04:00am 2.1 0.4 2.0 99 0.0 CALM 0 0 0 0 1027.6 - 0.2
21/03:30am 1.5 -0.3 1.4 99 0.0 CALM 0 2 0 1 1027.5 - 0.2
21/03:00am 2.9 0.0 2.8 99 0.0 S 7 9 4 5 1027.4 1028.0 0.2
21/02:30am 1.9 -1.2 1.5 97 0.2 SSW 7 9 4 5 1027.4 - 0.2
21/02:00am 2.7 -0.4 1.1 89 0.6 SSE 7 9 4 5 1027.3 - 0.2
21/01:30am 2.9 -0.5 1.6 91 0.5 S 9 11 5 6 1027.3 - 0.2
21/01:00am 3.1 0.1 1.9 92 0.5 SSW 7 9 4 5 1027.2 - 0.2
21/12:30am 3.3 0.5 3.0 98 0.1 S 7 11 4 6 1027.0 - 0.2
21/12:00am 3.0 0.9 1.5 90 0.6 S 2 7 1 4 1026.9 1027.4 0.2
 
Date/Time
EST
Temp
°C
App
Temp
°C
Dew
Point
Rel
Hum
%
Delta-T
°C
Wind Press
QNH
hPa
Press
MSL
hPa
Rain
since 9 am
mm
Dir
 
Spd
km/h
Gust
km/h
Spd
kts
Gust
kts
20/11:30pm 3.1 1.0 1.6 90 0.6 SSE 2 6 1 3 1026.7 - 0.2
20/11:00pm 4.5 1.6 2.8 89 0.7 S 7 9 4 5 1026.5 - 0.2
20/10:30pm 4.7 1.9 2.2 84 1.0 E 6 7 3 4 1026.3 - 0.2
20/10:00pm 6.8 3.9 2.5 74 1.8 SSE 7 9 4 5 1026.1 - 0.2
20/09:30pm 6.5 3.7 3.1 79 1.4 S 7 9 4 5 1025.9 - 0.2
20/09:00pm 7.0 3.8 2.9 75 1.7 S 9 11 5 6 1025.8 1026.4 0.2
20/08:30pm 7.4 3.7 2.5 71 2.1 SSE 11 13 6 7 1025.5 - 0.2
20/08:00pm 7.2 5.6 2.3 71 2.1 CALM 0 0 0 0 1025.2 - 0.2
20/07:30pm 8.4 6.6 3.3 70 2.2 S 2 6 1 3 1025.0 - 0.2
20/07:00pm 8.9 6.2 3.9 71 2.2 SSW 7 9 4 5 1024.7 - 0.2
20/06:30pm 9.2 7.7 2.8 64 2.8 CALM 0 6 0 3 1024.5 - 0.2
20/06:00pm 11.5 9.0 3.8 59 3.5 SSW 6 7 3 4 1024.3 1024.8 0.2
20/05:30pm 12.8 9.8 4.3 56 3.9 S 9 9 5 5 1024.1 - 0.2
20/05:00pm 14.0 11.1 4.6 53 4.4 S 9 13 5 7 1023.9 - 0.2
20/04:30pm 15.1 11.7 3.9 47 5.2 S 11 15 6 8 1023.8 - 0.2
20/04:00pm 15.4 12.4 3.9 46 5.4 S 9 13 5 7 1023.7 - 0.2
20/03:30pm 15.3 12.2 3.8 46 5.4 S 9 13 5 7 1023.8 - 0.2
20/03:00pm 15.2 11.8 4.0 47 5.2 S 11 17 6 9 1023.7 1024.3 0.2
20/02:30pm 14.9 12.3 4.0 48 5.1 S 7 13 4 7 1023.7 - 0.2
20/02:00pm 14.6 10.8 3.7 48 5.0 SE 13 19 7 10 1023.9 - 0.2
20/01:30pm 14.5 11.9 4.2 50 4.8 ESE 7 15 4 8 1024.0 - 0.2
20/01:00pm 14.1 11.4 3.6 49 4.8 ESE 7 20 4 11 1024.2 - 0.2
20/12:30pm 14.0 11.0 4.0 51 4.6 ESE 9 13 5 7 1024.6 - 0.2
20/12:00pm 13.5 10.1 3.8 52 4.4 ESE 11 20 6 11 1025.0 1025.6 0.2
20/11:30am 13.2 9.9 4.4 55 4.1 E 11 17 6 9 1025.4 - 0.0
20/11:00am 12.4 8.7 4.6 59 3.6 SE 13 20 7 11 1025.5 - 0.0
20/10:30am 11.2 8.4 5.3 67 2.8 S 9 15 5 8 1025.6 - 0.0
20/10:00am 10.1 7.5 3.4 63 3.0 SSE 6 11 3 6 1025.7 - 0.0
20/09:30am 9.1 6.3 5.1 76 1.8 S 9 11 5 6 1025.8 - 0.0
20/09:00am 7.3 5.0 4.9 85 1.1 S 6 9 3 5 1025.9 1026.5 0.0
20/08:30am 5.5 4.2 4.3 92 0.5 CALM 0 0 0 0 1025.7 - 0.0
20/08:00am 3.9 2.5 3.6 98 0.1 CALM 0 0 0 0 1025.6 - 0.0
20/07:30am 2.9 1.4 2.8 99 0.0 CALM 0 0 0 0 1025.3 - 0.0
20/07:00am 0.7 -1.2 0.6 99 0.0 CALM 0 0 0 0 1024.9 - 0.0
20/06:30am 0.3 -1.8 -0.5 94 0.3 CALM 0 0 0 0 1024.5 - 0.0
20/06:00am 2.0 0.3 1.9 99 0.0 CALM 0 0 0 0 1024.2 1024.8 0.0
20/05:30am 2.0 0.3 1.9 99 0.0 CALM 0 0 0 0 1023.8 - 0.0
20/05:00am 1.4 -0.9 0.1 91 0.5 S 2 6 1 3 1023.7 - 0.0
20/04:30am 3.2 0.4 3.1 99 0.0 SSW 7 9 4 5 1023.6 - 0.0
20/04:00am 2.7 -0.2 2.6 99 0.0 SSE 7 9 4 5 1023.4 - 0.0
20/03:30am 3.3 0.5 1.8 90 0.6 SSE 6 7 3 4 1023.3 - 0.0
20/03:00am 3.3 1.5 3.2 99 0.0 SW 2 9 1 5 1023.3 1023.9 0.0
20/02:30am 1.9 -1.1 0.6 91 0.5 WSW 6 7 3 4 1023.2 - 0.0
20/02:00am 3.8 1.0 3.2 96 0.2 SE 7 9 4 5 1023.2 - 0.0
20/01:30am 3.7 0.9 3.0 95 0.3 SSE 7 11 4 6 1023.2 - 0.0
20/01:00am 4.9 2.2 3.7 92 0.5 E 7 9 4 5 1022.9 - 0.0
20/12:30am 5.7 2.4 4.5 92 0.5 E 11 15 6 8 1022.8 - 0.0
20/12:00am 5.0 2.2 3.3 89 0.7 ESE 7 9 4 5 1022.9 1023.5 0.0
 
Date/Time
EST
Temp
°C
App
Temp
°C
Dew
Point
Rel
Hum
%
Delta-T
°C
Wind Press
QNH
hPa
Press
MSL
hPa
Rain
since 9 am
mm
Dir
 
Spd
km/h
Gust
km/h
Spd
kts
Gust
kts
19/11:30pm 5.9 3.0 4.7 92 0.5 SE 9 11 5 6 1022.6 - 0.0
19/11:00pm 6.1 3.6 4.6 90 0.7 ESE 7 11 4 6 1022.4 - 0.0
19/10:30pm 6.8 4.0 5.3 90 0.7 ESE 9 11 5 6 1022.1 - 0.0
19/10:00pm 6.2 5.0 4.4 88 0.8 CALM 0 7 0 4 1022.0 - 0.0

Other Formats:

Comma delimited format used in spreadsheet applications
http://www.bom.gov.au/fwo/IDN60801/IDN60801.95721.axf

JavaScript Object Notation format (JSON) in row-major order
http://www.bom.gov.au/fwo/IDN60801/IDN60801.95721.json